Time;durP1;ratioP1;P1;durP2;ratioP2;P2;SDS_P1;SDS_P2;PMS_P1;PMS_P2;Temp;Humidity;BMP_temperature;BMP_pressure;BME280_temperature;BME280_humidity;BME280_pressure;Samples;Min_cycle;Max_cycle;Signal;HPM_P1;HPM_P2
2021/04/01 00:01:33;;;;;;;15.73;10.48;;;19.30;55.90;;;;;;5081346;28;20388;-82
2021/04/01 00:03:59;;;;;;;16.05;9.90;;;19.20;55.90;;;;;;5091153;28;20024;-82
2021/04/01 00:06:24;;;;;;;13.50;9.40;;;19.20;56.00;;;;;;5083699;28;20362;-82
2021/04/01 00:08:50;;;;;;;12.70;9.27;;;19.20;56.00;;;;;;5041094;28;20040;-81
2021/04/01 00:11:16;;;;;;;15.32;10.13;;;19.10;56.00;;;;;;5058391;28;20036;-82
2021/04/01 00:13:42;;;;;;;14.13;9.68;;;19.10;56.10;;;;;;5068568;28;20399;-82
2021/04/01 00:16:08;;;;;;;14.30;9.40;;;19.10;56.10;;;;;;5072533;28;20031;-81
2021/04/01 00:18:33;;;;;;;15.73;10.43;;;19.00;56.10;;;;;;5080690;28;20030;-82
2021/04/01 00:20:59;;;;;;;13.02;8.80;;;19.00;56.10;;;;;;5090968;28;20035;-82
2021/04/01 00:23:25;;;;;;;15.50;9.93;;;19.00;56.20;;;;;;5080973;28;20095;-82
2021/04/01 00:25:51;;;;;;;14.77;9.65;;;18.90;56.20;;;;;;5085537;28;20024;-82
2021/04/01 00:28:17;;;;;;;13.55;9.35;;;18.90;56.30;;;;;;5076894;28;20461;-82
2021/04/01 00:30:43;;;;;;;13.15;8.70;;;18.90;56.40;;;;;;5090718;28;20031;-83
2021/04/01 00:33:09;;;;;;;14.55;10.07;;;18.90;56.50;;;;;;5086575;28;20024;-82
2021/04/01 00:35:34;;;;;;;16.05;10.75;;;18.80;56.40;;;;;;5076973;28;20028;-82
2021/04/01 00:38:00;;;;;;;14.93;10.13;;;18.80;56.50;;;;;;5062043;28;20116;-82
2021/04/01 00:40:26;;;;;;;14.63;10.15;;;18.80;56.60;;;;;;5088692;28;20044;-82
2021/04/01 00:42:52;;;;;;;16.17;10.82;;;18.80;56.60;;;;;;5070283;28;20111;-82
2021/04/01 00:45:19;;;;;;;14.15;10.18;;;18.70;56.70;;;;;;5090730;28;20012;-82
2021/04/01 00:47:47;;;;;;;14.93;10.05;;;18.70;56.80;;;;;;5090517;28;20036;-82
2021/04/01 00:50:26;;;;;;;14.25;9.68;;;18.70;56.80;;;;;;5090337;28;20487;-81
2021/04/01 00:52:52;;;;;;;16.02;9.70;;;18.60;56.80;;;;;;5073974;28;20177;-82
2021/04/01 00:55:18;;;;;;;15.27;9.88;;;18.60;56.80;;;;;;5073417;28;20059;-81
2021/04/01 00:57:47;;;;;;;13.20;8.85;;;18.60;56.90;;;;;;5090483;28;20024;-82
2021/04/01 01:00:18;;;;;;;14.75;9.75;;;18.50;56.90;;;;;;5091142;28;20032;-81
2021/04/01 01:02:43;;;;;;;15.50;10.00;;;18.50;57.00;;;;;;5069539;28;20028;-82
2021/04/01 01:05:12;;;;;;;15.05;10.18;;;18.50;57.00;;;;;;5044158;28;20469;-81
2021/04/01 01:07:38;;;;;;;13.77;9.82;;;18.50;57.10;;;;;;5074820;28;20058;-81
2021/04/01 01:10:07;;;;;;;14.40;9.85;;;18.50;57.10;;;;;;5077827;28;20487;-82
2021/04/01 01:12:33;;;;;;;13.75;9.77;;;18.40;57.10;;;;;;5094049;28;20511;-82
2021/04/01 01:15:01;;;;;;;14.13;9.50;;;18.40;57.10;;;;;;5094460;28;20024;-81
2021/04/01 01:17:27;;;;;;;16.30;11.10;;;18.40;57.20;;;;;;5060954;28;20082;-82
2021/04/01 01:19:53;;;;;;;13.15;9.23;;;18.40;57.40;;;;;;5077095;28;20020;-82
2021/04/01 01:22:21;;;;;;;16.73;10.57;;;18.40;57.40;;;;;;5095432;28;20020;-82
2021/04/01 01:24:47;;;;;;;15.75;10.32;;;18.30;57.30;;;;;;5059382;28;20464;-82
2021/04/01 01:27:13;;;;;;;14.98;10.27;;;18.30;57.40;;;;;;5094382;28;20103;-81
2021/04/01 01:29:40;;;;;;;13.73;9.93;;;18.30;57.40;;;;;;5077365;28;20016;-82
2021/04/01 01:32:07;;;;;;;14.85;9.63;;;18.30;57.50;;;;;;5059319;28;20086;-82
2021/04/01 01:34:36;;;;;;;14.25;9.70;;;18.20;57.50;;;;;;5077430;28;20035;-82
2021/04/01 01:37:04;;;;;;;14.90;10.07;;;18.20;57.50;;;;;;5077166;28;20030;-81
2021/04/01 01:39:30;;;;;;;14.18;9.88;;;18.20;57.50;;;;;;5094430;28;20023;-82
2021/04/01 01:41:56;;;;;;;14.82;10.23;;;18.10;57.50;;;;;;5075915;28;20031;-82
2021/04/01 01:44:22;;;;;;;14.25;10.23;;;18.10;57.70;;;;;;5052711;28;20028;-81
2021/04/01 01:46:47;;;;;;;15.80;10.55;;;18.10;57.60;;;;;;5061138;28;20082;-82
2021/04/01 01:49:13;;;;;;;16.02;10.73;;;18.10;57.70;;;;;;5080366;28;20387;-81
2021/04/01 01:51:39;;;;;;;16.90;11.00;;;18.10;57.80;;;;;;5054448;28;20442;-81
2021/04/01 01:54:05;;;;;;;15.82;10.15;;;18.00;57.80;;;;;;5077221;28;20028;-81
2021/04/01 01:56:32;;;;;;;15.27;9.90;;;18.00;57.80;;;;;;5076515;28;20052;-82
2021/04/01 01:58:58;;;;;;;15.88;10.63;;;18.00;57.80;;;;;;5092360;28;20043;-81
2021/04/01 02:01:25;;;;;;;17.15;10.90;;;18.00;57.90;;;;;;5073354;28;20032;-82
2021/04/01 02:03:51;;;;;;;14.63;10.40;;;17.90;58.10;;;;;;5102063;28;20036;-81
2021/04/01 02:06:21;;;;;;;14.48;10.20;;;17.90;58.00;;;;;;5074477;28;20024;-82
2021/04/01 02:08:48;;;;;;;17.85;11.52;;;17.90;58.10;;;;;;5073429;28;20029;-80
2021/04/01 02:11:16;;;;;;;17.70;11.27;;;17.90;58.10;;;;;;5089630;28;20119;-81
2021/04/01 02:13:42;;;;;;;16.63;10.43;;;17.90;58.20;;;;;;5078853;28;20077;-81
2021/04/01 02:16:07;;;;;;;16.08;11.07;;;17.80;58.20;;;;;;5066495;28;20489;-80
2021/04/01 02:18:33;;;;;;;16.67;11.35;;;17.80;58.30;;;;;;5072377;28;20039;-81
2021/04/01 02:21:01;;;;;;;16.98;11.32;;;17.80;58.30;;;;;;5072751;28;20032;-81
2021/04/01 02:23:31;;;;;;;15.13;10.30;;;17.80;58.30;;;;;;5076129;28;20423;-81
2021/04/01 02:25:59;;;;;;;15.13;9.98;;;17.80;58.40;;;;;;5062835;28;20056;-82
2021/04/01 02:28:27;;;;;;;17.27;10.55;;;17.80;58.40;;;;;;5092045;28;20047;-81
2021/04/01 02:30:56;;;;;;;16.40;10.35;;;17.70;58.40;;;;;;5092740;28;20036;-81
2021/04/01 02:33:28;;;;;;;17.45;11.30;;;17.70;58.40;;;;;;5080748;28;20032;-81
2021/04/01 02:35:55;;;;;;;16.48;10.55;;;17.70;58.50;;;;;;5070242;28;20117;-81
2021/04/01 02:38:22;;;;;;;17.30;11.02;;;17.70;58.40;;;;;;5109606;27;20024;-81
2021/04/01 02:40:48;;;;;;;16.98;11.48;;;17.70;58.50;;;;;;5093423;28;20090;-81
2021/04/01 02:43:20;;;;;;;16.75;11.60;;;17.60;58.50;;;;;;5094427;28;20027;-81
2021/04/01 02:45:46;;;;;;;17.10;11.52;;;17.60;58.50;;;;;;5092609;28;20078;-81
2021/04/01 02:48:12;;;;;;;17.75;11.57;;;17.60;58.50;;;;;;5072723;28;20028;-81
2021/04/01 02:50:38;;;;;;;17.73;11.63;;;17.60;58.60;;;;;;5062515;28;20334;-81
2021/04/01 02:53:03;;;;;;;16.88;11.82;;;17.60;58.60;;;;;;5072900;28;20028;-81
2021/04/01 02:55:29;;;;;;;17.05;11.43;;;17.50;58.60;;;;;;5090126;28;20032;-81
2021/04/01 02:57:55;;;;;;;18.38;11.55;;;17.50;58.70;;;;;;5034585;28;20029;-81
2021/04/01 03:00:25;;;;;;;17.00;11.38;;;17.50;58.80;;;;;;5092561;28;20074;-82
2021/04/01 03:03:16;;;;;;;17.95;11.73;;;17.50;58.70;;;;;;5074858;28;20396;-81
2021/04/01 03:05:37;;;;;;;17.60;12.05;;;17.50;58.80;;;;;;5077712;28;20082;-82
2021/04/01 03:08:04;;;;;;;16.48;11.40;;;17.50;58.90;;;;;;5089398;28;20568;-82
2021/04/01 03:10:30;;;;;;;17.92;11.57;;;17.40;58.80;;;;;;5056657;28;20477;-82
2021/04/01 03:12:55;;;;;;;19.50;12.20;;;17.40;58.90;;;;;;5067770;28;20033;-81
2021/04/01 03:15:21;;;;;;;17.48;12.15;;;17.40;58.90;;;;;;5075104;28;20127;-81
2021/04/01 03:17:48;;;;;;;18.15;11.80;;;17.40;58.90;;;;;;5074660;28;20464;-81
2021/04/01 03:20:14;;;;;;;18.35;11.80;;;17.40;59.00;;;;;;5088280;28;20032;-81
2021/04/01 03:22:41;;;;;;;17.50;11.52;;;17.30;59.10;;;;;;5081589;28;20146;-82
2021/04/01 03:25:09;;;;;;;18.60;11.45;;;17.30;59.10;;;;;;5057694;28;20439;-82
2021/04/01 03:27:36;;;;;;;17.95;11.30;;;17.30;59.10;;;;;;5055527;28;20024;-82
2021/04/01 03:30:13;;;;;;;18.60;13.00;;;17.30;59.20;;;;;;5091257;28;20028;-82
2021/04/01 03:32:41;;;;;;;20.92;13.48;;;17.20;59.80;;;;;;5104606;28;20037;-82
2021/04/01 03:35:10;;;;;;;17.60;12.20;;;17.30;59.30;;;;;;5086192;28;20027;-82
2021/04/01 03:37:36;;;;;;;19.00;12.45;;;17.20;59.30;;;;;;5091687;28;20503;-82
2021/04/01 03:40:03;;;;;;;19.45;12.70;;;17.20;59.30;;;;;;5075032;28;20586;-82
2021/04/01 03:42:30;;;;;;;18.55;12.10;;;17.20;59.30;;;;;;5070897;28;20372;-82
2021/04/01 03:44:56;;;;;;;18.90;13.18;;;17.10;59.20;;;;;;5091515;28;20032;-82
2021/04/01 03:47:22;;;;;;;18.25;12.27;;;17.10;59.30;;;;;;5074874;28;20099;-82
2021/04/01 03:49:48;;;;;;;20.02;12.90;;;17.10;59.30;;;;;;5074617;28;20063;-82
2021/04/01 03:52:13;;;;;;;20.92;13.15;;;17.10;59.30;;;;;;5074045;28;20119;-81
2021/04/01 03:54:41;;;;;;;18.58;12.38;;;17.00;59.30;;;;;;5050622;28;20552;-81
2021/04/01 03:57:07;;;;;;;21.83;14.02;;;17.00;59.30;;;;;;5061448;28;20483;-82
2021/04/01 03:59:48;;;;;;;20.15;12.55;;;17.00;59.40;;;;;;5074822;28;20102;-82
2021/04/01 04:02:41;;;;;;;17.20;11.20;;;17.00;59.40;;;;;;5076678;28;20083;-82
2021/04/01 04:05:12;;;;;;;19.38;12.50;;;17.00;59.40;;;;;;5090390;28;20097;-82
2021/04/01 04:13:20;;;;;;;18.55;11.82;;;16.90;60.10;;;;;;5080980;28;20037;-81
2021/04/01 04:15:32;;;;;;;18.60;11.75;;;16.80;60.00;;;;;;5087593;28;20048;-80
2021/04/01 04:17:58;;;;;;;20.15;12.70;;;16.80;59.40;;;;;;5091212;28;20046;-81
2021/04/01 04:20:24;;;;;;;19.05;12.60;;;16.80;59.40;;;;;;5074518;28;20027;-81
2021/04/01 04:22:50;;;;;;;18.30;12.82;;;16.70;59.40;;;;;;5074613;28;20034;-80
2021/04/01 04:25:17;;;;;;;18.27;12.13;;;16.70;59.40;;;;;;5058009;28;20055;-81
2021/04/01 04:30:09;;;;;;;19.85;13.48;;;16.60;59.30;;;;;;5090959;28;20074;-81
2021/04/01 04:32:35;;;;;;;20.98;13.00;;;16.60;59.30;;;;;;5074575;28;20115;-80
2021/04/01 04:35:02;;;;;;;20.23;12.50;;;16.60;59.30;;;;;;5074188;28;20452;-81
2021/04/01 04:37:28;;;;;;;18.85;12.68;;;16.60;59.40;;;;;;5068255;28;20031;-80
2021/04/01 04:39:53;;;;;;;21.35;13.25;;;16.50;59.40;;;;;;5082786;28;20422;-81
2021/04/01 04:42:19;;;;;;;21.63;13.45;;;16.50;59.40;;;;;;5091515;28;20558;-80
2021/04/01 04:44:45;;;;;;;19.90;12.55;;;16.50;59.40;;;;;;5085856;28;20384;-81
2021/04/01 04:47:11;;;;;;;19.52;12.70;;;16.40;59.30;;;;;;5077459;28;20055;-85
2021/04/01 04:49:37;;;;;;;19.13;12.45;;;16.40;59.30;;;;;;5072690;28;20098;-85
2021/04/01 04:52:03;;;;;;;20.40;12.95;;;16.40;59.30;;;;;;5057960;28;20464;-85
2021/04/01 04:54:30;;;;;;;21.40;14.02;;;16.40;59.30;;;;;;5073510;28;20021;-85
2021/04/01 04:56:59;;;;;;;19.90;13.55;;;16.30;59.30;;;;;;5071933;28;20065;-85
2021/04/01 04:59:33;;;;;;;18.67;12.45;;;16.30;59.30;;;;;;5050396;28;20434;-86
2021/04/01 05:04:47;;;;;;;19.70;12.75;;;16.20;59.30;;;;;;5096552;28;20112;-85
2021/04/01 05:07:13;;;;;;;18.35;12.32;;;16.20;59.30;;;;;;5090935;28;20809;-83
2021/04/01 05:09:39;;;;;;;20.05;12.65;;;16.20;59.30;;;;;;5078165;28;20020;-83
2021/04/01 05:12:05;;;;;;;19.42;12.95;;;16.10;59.90;;;;;;5087558;28;20024;-79
2021/04/01 05:14:31;;;;;;;19.20;12.93;;;16.10;59.30;;;;;;5088833;28;20047;-79
2021/04/01 05:16:57;;;;;;;21.45;13.48;;;16.00;59.30;;;;;;5061635;28;20032;-80
2021/04/01 05:19:24;;;;;;;19.88;13.05;;;16.00;59.30;;;;;;5083863;28;20058;-81
2021/04/01 05:24:18;;;;;;;20.50;13.05;;;15.90;59.30;;;;;;5098902;28;20032;-80
2021/04/01 05:29:19;;;;;;;19.02;12.73;;;15.90;59.40;;;;;;5078164;28;20080;-80
2021/04/01 05:31:46;;;;;;;18.38;12.52;;;15.90;59.60;;;;;;5079138;28;20060;-80
2021/04/01 05:34:12;;;;;;;19.33;13.27;;;15.80;59.50;;;;;;5094098;28;20468;-80
2021/04/01 05:36:41;;;;;;;20.42;13.15;;;15.80;59.50;;;;;;5094469;28;20039;-80
2021/04/01 05:39:11;;;;;;;22.35;13.25;;;15.70;59.50;;;;;;5093950;28;20054;-80
2021/04/01 05:41:39;;;;;;;19.70;12.48;;;15.80;59.60;;;;;;5087418;28;20472;-81
2021/04/01 05:44:17;;;;;;;18.58;12.52;;;15.70;59.60;;;;;;5094058;28;20468;-81
2021/04/01 05:46:54;;;;;;;19.67;12.63;;;15.70;59.60;;;;;;5095203;28;20036;-83
2021/04/01 06:05:47;;;;;;;17.23;10.85;;;15.40;59.90;;;;;;5093394;28;20552;-80
2021/04/01 06:08:21;;;;;;;17.65;11.50;;;15.40;59.90;;;;;;5091914;28;20032;-80
2021/04/01 06:10:49;;;;;;;19.25;11.85;;;15.40;59.90;;;;;;5093304;28;20052;-80
2021/04/01 06:13:16;;;;;;;20.08;13.07;;;15.30;60.00;;;;;;5077439;28;20059;-82
2021/04/01 06:15:52;;;;;;;17.75;11.52;;;15.40;60.00;;;;;;5085510;28;20112;-80
2021/04/01 06:18:22;;;;;;;18.00;11.25;;;15.30;60.00;;;;;;5089959;28;20051;-80
2021/04/01 06:20:50;;;;;;;17.95;11.70;;;15.30;60.00;;;;;;5060110;28;20024;-81
2021/04/01 06:23:30;;;;;;;18.00;11.65;;;15.20;60.00;;;;;;5092071;28;20028;-80
2021/04/01 06:25:58;;;;;;;18.40;12.15;;;15.20;60.40;;;;;;5078955;28;20056;-80
2021/04/01 06:28:45;;;;;;;17.33;11.18;;;15.20;60.10;;;;;;5088035;28;20016;-80
2021/04/01 06:31:13;;;;;;;14.65;9.95;;;15.20;60.20;;;;;;5092956;28;20453;-81
2021/04/01 06:33:51;;;;;;;17.60;10.85;;;15.20;60.10;;;;;;5093093;28;20126;-80
2021/04/01 06:36:19;;;;;;;17.60;11.70;;;15.20;60.20;;;;;;5093965;28;20549;-81
2021/04/01 06:38:45;;;;;;;17.13;11.52;;;15.20;60.10;;;;;;5093064;28;20036;-79
2021/04/01 06:41:29;;;;;;;17.30;11.35;;;15.20;60.20;;;;;;5092617;28;20384;-79
2021/04/01 06:44:49;;;;;;;17.23;11.73;;;15.10;60.20;;;;;;5076170;28;20369;-80
2021/04/01 06:47:19;;;;;;;16.08;9.95;;;15.10;60.20;;;;;;5041327;28;20033;-80
2021/04/01 06:52:21;;;;;;;16.38;10.93;;;15.10;60.20;;;;;;5092786;28;20075;-80
2021/04/01 06:55:42;;;;;;;16.92;10.70;;;15.10;60.30;;;;;;5092814;28;20136;-80
2021/04/01 06:58:13;;;;;;;17.20;10.98;;;15.10;60.30;;;;;;5075304;28;20044;-80
2021/04/01 07:03:28;;;;;;;19.98;12.02;;;15.00;60.30;;;;;;5079198;28;20034;-80
2021/04/01 07:06:01;;;;;;;17.77;11.07;;;15.00;60.40;;;;;;5061218;28;20028;-80
2021/04/01 07:08:57;;;;;;;17.55;10.80;;;15.00;60.30;;;;;;5092674;28;20028;-80
2021/04/01 07:11:35;;;;;;;16.48;11.27;;;15.00;60.40;;;;;;5092714;28;20047;-80
2021/04/01 07:14:13;;;;;;;18.23;11.20;;;15.00;60.40;;;;;;5092480;28;20490;-80
2021/04/01 07:16:54;;;;;;;19.45;11.88;;;15.00;60.50;;;;;;5061523;28;20036;-82
2021/04/01 07:35:57;;;;;;;21.42;13.50;;;15.00;60.70;;;;;;5079755;28;20219;-84
2021/04/01 07:46:49;;;;;;;25.13;15.55;;;15.10;60.90;;;;;;5084678;28;20456;-82
2021/04/01 07:49:22;;;;;;;26.98;16.17;;;15.10;60.90;;;;;;5077185;28;20012;-80
2021/04/01 07:51:58;;;;;;;28.20;17.15;;;15.10;61.00;;;;;;5081177;28;20067;-86
2021/04/01 07:54:41;;;;;;;28.52;17.40;;;15.10;61.10;;;;;;5078227;28;20035;-81
2021/04/01 07:57:26;;;;;;;26.30;16.40;;;15.10;61.10;;;;;;5061266;28;20499;-80
2021/04/01 08:05:39;;;;;;;31.90;18.00;;;15.20;61.10;;;;;;5060041;28;20429;-80
2021/04/01 08:08:11;;;;;;;28.48;17.52;;;15.20;61.10;;;;;;5077498;28;20099;-80
2021/04/01 08:10:45;;;;;;;29.77;18.15;;;15.20;61.20;;;;;;5079402;28;20404;-81
2021/04/01 08:13:15;;;;;;;30.92;18.63;;;15.20;61.20;;;;;;5070176;28;20067;-81
2021/04/01 08:15:47;;;;;;;31.48;18.70;;;15.20;61.20;;;;;;5082834;28;20099;-80
2021/04/01 08:18:25;;;;;;;30.30;19.20;;;15.20;61.30;;;;;;5086489;28;20028;-80
2021/04/01 08:20:57;;;;;;;32.03;18.83;;;15.30;61.30;;;;;;5091211;28;20024;-81
2021/04/01 08:23:43;;;;;;;30.67;19.65;;;15.30;61.30;;;;;;5091085;28;20030;-82
2021/04/01 08:29:45;;;;;;;31.40;19.60;;;15.30;61.40;;;;;;5049458;28;20525;-80
2021/04/01 08:34:40;;;;;;;31.33;19.75;;;15.40;61.40;;;;;;5092722;28;20107;-81
2021/04/01 08:37:09;;;;;;;33.75;20.67;;;15.40;61.40;;;;;;5091293;28;20094;-81
2021/04/01 08:39:37;;;;;;;31.90;20.65;;;15.40;61.50;;;;;;5091162;28;20031;-81
2021/04/01 08:42:06;;;;;;;33.47;20.65;;;15.40;61.50;;;;;;5055949;28;20452;-81
2021/04/01 08:44:50;;;;;;;31.02;20.10;;;15.50;61.60;;;;;;5073937;28;20028;-81
2021/04/01 08:47:27;;;;;;;33.58;20.63;;;15.50;61.50;;;;;;5071351;28;20369;-81
2021/04/01 08:50:28;;;;;;;34.17;20.38;;;15.50;61.50;;;;;;5081089;28;20097;-81
2021/04/01 08:53:13;;;;;;;31.45;19.67;;;15.50;61.60;;;;;;5067405;28;20045;-80
2021/04/01 08:55:57;;;;;;;33.20;19.98;;;15.60;61.60;;;;;;5085879;28;20052;-81
2021/04/01 08:58:27;;;;;;;33.10;20.45;;;15.60;61.50;;;;;;5098096;28;20084;-83
2021/04/01 09:01:08;;;;;;;31.33;19.95;;;15.60;61.50;;;;;;5091941;28;20026;-81
2021/04/01 09:03:37;;;;;;;35.53;20.70;;;15.70;61.50;;;;;;5090888;28;20039;-81
2021/04/01 09:06:05;;;;;;;29.45;19.65;;;15.70;61.40;;;;;;5073529;28;20028;-81
2021/04/01 09:08:35;;;;;;;32.83;20.33;;;15.80;61.40;;;;;;5070579;28;20024;-82
2021/04/01 09:11:02;;;;;;;31.10;20.70;;;15.80;61.40;;;;;;5074731;28;20447;-81
2021/04/01 09:13:33;;;;;;;32.30;20.33;;;15.90;61.40;;;;;;5084526;28;20048;-81
2021/04/01 09:18:27;;;;;;;31.80;20.70;;;16.00;61.40;;;;;;5071399;28;20047;-82
2021/04/01 09:20:56;;;;;;;32.80;21.00;;;16.10;61.40;;;;;;5083469;28;20033;-81
2021/04/01 09:23:38;;;;;;;32.85;21.27;;;16.10;61.40;;;;;;5085297;28;20039;-82
2021/04/01 09:26:07;;;;;;;33.05;20.75;;;16.20;61.50;;;;;;5098593;28;20084;-85
2021/04/01 09:28:35;;;;;;;33.70;21.10;;;16.20;61.30;;;;;;5089436;28;20024;-84
2021/04/01 09:31:02;;;;;;;31.33;21.27;;;16.30;61.40;;;;;;5084572;28;20032;-89
2021/04/01 09:33:30;;;;;;;35.13;21.60;;;16.30;61.30;;;;;;5095545;28;20094;-87
2021/04/01 09:36:36;;;;;;;30.90;20.17;;;16.40;61.30;;;;;;5096309;28;20423;-82
2021/04/01 09:41:48;;;;;;;24.90;16.65;;;16.50;61.20;;;;;;5080397;28;20001;-81
2021/04/01 09:44:14;;;;;;;27.40;17.95;;;16.60;61.10;;;;;;5078793;28;20108;-82
2021/04/01 09:47:07;;;;;;;32.38;19.85;;;16.60;61.20;;;;;;5065702;28;20070;-82
2021/04/01 09:49:55;;;;;;;32.00;20.48;;;16.70;61.40;;;;;;5074463;28;20457;-82
2021/04/01 09:52:27;;;;;;;28.75;19.30;;;16.80;61.30;;;;;;5091759;28;20037;-88
2021/04/01 09:54:56;;;;;;;28.67;19.35;;;16.80;61.20;;;;;;5083362;28;20412;-81
2021/04/01 09:57:27;;;;;;;31.92;20.45;;;16.90;61.20;;;;;;5077300;28;20051;-82
2021/04/01 10:00:09;;;;;;;30.40;20.33;;;17.00;61.30;;;;;;5094695;28;20468;-84
2021/04/01 10:02:40;;;;;;;31.27;19.95;;;17.10;61.30;;;;;;5076876;28;20031;-83
2021/04/01 10:05:07;;;;;;;33.40;22.40;;;17.10;61.10;;;;;;5080796;28;20056;-86
2021/04/01 10:07:36;;;;;;;28.88;19.38;;;17.20;61.20;;;;;;5076680;28;20016;-84
2021/04/01 10:10:04;;;;;;;30.65;20.45;;;17.30;61.30;;;;;;5089976;28;20683;-83
2021/04/01 10:12:36;;;;;;;28.80;19.73;;;17.30;61.30;;;;;;5084028;28;20032;-83
2021/04/01 10:15:09;;;;;;;29.35;19.80;;;17.40;61.30;;;;;;5091560;28;20027;-83
2021/04/01 10:17:36;;;;;;;30.10;20.73;;;17.50;61.10;;;;;;5076201;28;20461;-93
2021/04/01 10:20:03;;;;;;;30.48;20.63;;;17.50;61.00;;;;;;5090892;28;20031;-83
2021/04/01 10:22:35;;;;;;;30.52;20.58;;;17.60;61.10;;;;;;5094864;28;20039;-84
2021/04/01 10:25:29;;;;;;;30.83;20.70;;;17.70;61.10;;;;;;5080520;28;20036;-89
2021/04/01 10:28:02;;;;;;;25.48;18.25;;;17.80;61.20;;;;;;5088574;28;20448;-82
2021/04/01 10:30:32;;;;;;;27.30;18.42;;;17.80;61.10;;;;;;5079361;28;20391;-81
2021/04/01 10:33:23;;;;;;;25.75;17.73;;;17.90;61.20;;;;;;5077236;28;20040;-85
2021/04/01 10:35:54;;;;;;;25.52;17.65;;;18.00;61.30;;;;;;5095457;28;20052;-85
2021/04/01 10:38:21;;;;;;;24.73;17.67;;;18.10;61.20;;;;;;5091526;28;20035;-85
2021/04/01 10:40:49;;;;;;;24.15;17.80;;;18.10;61.00;;;;;;5092964;28;20020;-85
2021/04/01 10:43:31;;;;;;;23.65;16.27;;;18.20;61.00;;;;;;5095082;28;20164;-91
2021/04/01 10:46:03;;;;;;;20.92;15.57;;;18.30;61.00;;;;;;5091351;28;20107;-88
2021/04/01 10:48:36;;;;;;;23.38;16.42;;;18.30;60.90;;;;;;5076500;28;20035;-93
2021/04/01 10:51:07;;;;;;;20.10;14.30;;;18.40;60.80;;;;;;5080816;28;20020;-93
2021/04/01 10:53:39;;;;;;;21.70;14.48;;;18.50;60.70;;;;;;5082946;28;20040;-93
2021/04/01 10:56:10;;;;;;;19.95;13.63;;;18.60;60.80;;;;;;5078160;28;20045;-95
2021/04/01 10:58:56;;;;;;;18.83;11.88;;;18.70;60.80;;;;;;5082015;28;20055;-94
2021/04/01 11:01:38;;;;;;;15.25;10.32;;;18.70;60.90;;;;;;5086329;28;20028;-94
2021/04/01 11:04:09;;;;;;;15.30;10.10;;;18.80;60.90;;;;;;5082327;28;20029;-94
2021/04/01 11:06:35;;;;;;;14.43;8.98;;;18.90;60.70;;;;;;5059132;28;20131;-92
2021/04/01 11:09:02;;;;;;;12.40;8.55;;;19.00;60.80;;;;;;5059457;28;20032;-96
2021/04/01 11:14:18;;;;;;;11.23;7.68;;;19.10;60.60;;;;;;5085224;28;20058;-92
2021/04/01 11:16:50;;;;;;;11.65;7.00;;;19.20;60.50;;;;;;5109116;28;20480;-93
2021/04/01 11:19:17;;;;;;;10.45;6.68;;;19.20;61.00;;;;;;5085147;28;20029;-94
2021/04/01 11:21:44;;;;;;;9.65;6.63;;;19.40;60.40;;;;;;5076406;28;20487;-91
2021/04/01 11:24:11;;;;;;;9.75;6.32;;;19.40;60.20;;;;;;5078247;28;20035;-94
2021/04/01 11:26:38;;;;;;;9.88;6.07;;;19.40;60.10;;;;;;5063028;28;20025;-94
2021/04/01 11:29:12;;;;;;;10.07;5.90;;;19.50;60.00;;;;;;5094489;28;20030;-93
2021/04/01 11:31:39;;;;;;;7.90;5.32;;;19.60;60.00;;;;;;5093985;28;20040;-94
2021/04/01 11:34:07;;;;;;;8.35;4.95;;;19.60;59.80;;;;;;5057829;28;20009;-93
2021/04/01 11:36:41;;;;;;;7.90;5.30;;;19.70;59.80;;;;;;5103350;28;20375;-94
2021/04/01 11:39:27;;;;;;;8.00;5.15;;;19.70;59.80;;;;;;5078494;28;20052;-90
2021/04/01 11:41:54;;;;;;;6.07;3.90;;;19.80;59.80;;;;;;5081125;28;20040;-94
2021/04/01 11:44:20;;;;;;;6.38;4.00;;;19.90;60.00;;;;;;5076958;28;20012;-92
2021/04/01 11:46:47;;;;;;;6.80;4.20;;;19.90;60.00;;;;;;5069342;28;20027;-92
2021/04/01 11:49:13;;;;;;;5.93;3.65;;;20.00;60.10;;;;;;5073032;28;20028;-93
2021/04/01 11:51:39;;;;;;;5.88;3.53;;;20.00;60.60;;;;;;5094486;28;20484;-93
2021/04/01 11:54:11;;;;;;;6.80;3.28;;;20.10;60.20;;;;;;5080294;28;20166;-93
2021/04/01 11:56:44;;;;;;;6.85;3.53;;;20.20;60.40;;;;;;5083701;28;20055;-92
2021/04/01 11:59:28;;;;;;;4.93;2.72;;;20.20;60.40;;;;;;5078091;28;20031;-92
2021/04/01 12:02:03;;;;;;;6.45;2.97;;;20.30;60.30;;;;;;5083990;28;20040;-93
2021/04/01 12:04:31;;;;;;;4.75;2.03;;;20.30;60.20;;;;;;5091381;28;20024;-93
2021/04/01 12:06:57;;;;;;;3.50;2.13;;;20.40;60.00;;;;;;5083990;28;20017;-95
2021/04/01 12:09:24;;;;;;;4.07;2.10;;;20.40;59.90;;;;;;5073318;28;20036;-94
2021/04/01 12:11:50;;;;;;;2.92;1.75;;;20.50;59.80;;;;;;5077941;28;20031;-94
2021/04/01 12:14:17;;;;;;;3.72;1.95;;;20.50;59.70;;;;;;5093221;28;20396;-92
2021/04/01 12:16:44;;;;;;;4.10;1.95;;;20.50;59.60;;;;;;5093003;28;20016;-93
2021/04/01 12:19:10;;;;;;;2.90;2.05;;;20.60;59.60;;;;;;5076585;28;20484;-91
2021/04/01 12:21:36;;;;;;;3.38;1.73;;;20.70;59.70;;;;;;5092946;28;20039;-93
2021/04/01 12:24:05;;;;;;;4.15;2.10;;;20.70;59.60;;;;;;5056911;28;20025;-92
2021/04/01 12:26:42;;;;;;;4.38;1.95;;;20.70;59.70;;;;;;5090521;28;20108;-91
2021/04/01 12:29:08;;;;;;;3.67;1.60;;;20.70;59.60;;;;;;5080382;28;20024;-92
2021/04/01 12:31:39;;;;;;;3.88;1.60;;;20.80;59.50;;;;;;5076654;28;20025;-93
2021/04/01 12:34:10;;;;;;;5.25;1.90;;;20.80;59.50;;;;;;5076145;28;20491;-92
2021/04/01 12:36:39;;;;;;;2.15;1.35;;;20.80;59.30;;;;;;5092898;28;20062;-92
2021/04/01 12:39:06;;;;;;;4.50;1.52;;;20.90;59.30;;;;;;5093524;28;20021;-95
2021/04/01 12:41:35;;;;;;;3.42;1.48;;;20.90;59.30;;;;;;5081510;28;20058;-93
2021/04/01 12:44:01;;;;;;;3.40;1.60;;;20.90;59.10;;;;;;5076562;28;20016;-93
2021/04/01 12:46:43;;;;;;;2.70;1.60;;;20.90;59.00;;;;;;5083208;28;20469;-92
2021/04/01 12:49:11;;;;;;;2.15;1.10;;;21.00;59.00;;;;;;5091002;28;20020;-92
2021/04/01 12:51:49;;;;;;;3.85;1.48;;;21.00;58.90;;;;;;5093033;28;20021;-93
2021/04/01 12:54:19;;;;;;;2.67;1.50;;;21.00;58.70;;;;;;5089107;28;20024;-93
2021/04/01 12:56:58;;;;;;;2.53;1.38;;;21.10;58.60;;;;;;5073832;28;20131;-93
2021/04/01 12:59:50;;;;;;;2.10;1.35;;;21.10;58.60;;;;;;5091662;28;20024;-93
2021/04/01 13:02:22;;;;;;;2.65;1.23;;;21.10;58.60;;;;;;5076049;28;20032;-91
2021/04/01 13:04:59;;;;;;;4.03;1.42;;;21.10;58.60;;;;;;5095220;28;20028;-92
2021/04/01 13:07:33;;;;;;;3.45;1.45;;;21.10;58.40;;;;;;5097708;28;20109;-92
2021/04/01 13:12:40;;;;;;;2.55;1.40;;;21.20;58.40;;;;;;5089470;28;20040;-93
2021/04/01 13:15:06;;;;;;;3.40;1.50;;;21.20;58.30;;;;;;5097179;28;20073;-91
2021/04/01 13:17:32;;;;;;;2.25;1.20;;;21.20;58.30;;;;;;5096608;28;20042;-92
2021/04/01 13:19:58;;;;;;;3.15;1.40;;;21.30;58.30;;;;;;5076028;28;20017;-92
2021/04/01 13:22:44;;;;;;;1.90;1.20;;;21.30;58.30;;;;;;5085481;28;20039;-92
2021/04/01 13:25:16;;;;;;;2.80;1.42;;;21.30;58.30;;;;;;5065960;28;20028;-91
2021/04/01 13:27:44;;;;;;;4.07;1.63;;;21.30;58.20;;;;;;5107234;27;20069;-91
2021/04/01 13:30:11;;;;;;;2.47;1.30;;;21.30;58.30;;;;;;5080481;28;20036;-91
2021/04/01 13:32:45;;;;;;;3.20;1.40;;;21.40;58.30;;;;;;5107191;28;20476;-90
2021/04/01 13:35:25;;;;;;;2.95;1.20;;;21.40;58.30;;;;;;5082115;28;20063;-91
2021/04/01 13:38:14;;;;;;;4.82;1.40;;;21.40;58.20;;;;;;5096280;28;20043;-90
2021/04/01 13:40:44;;;;;;;2.63;1.08;;;21.40;58.20;;;;;;5096591;28;20118;-88
2021/04/01 13:43:12;;;;;;;4.53;1.20;;;21.40;58.10;;;;;;5085319;28;20063;-91
2021/04/01 13:45:42;;;;;;;2.60;1.50;;;21.40;58.00;;;;;;5093556;28;20048;-90
2021/04/01 13:48:13;;;;;;;3.80;1.17;;;21.50;57.80;;;;;;5086143;28;20058;-92
2021/04/01 13:50:45;;;;;;;2.58;1.30;;;21.40;57.70;;;;;;5092664;28;20025;-89
2021/04/01 13:53:28;;;;;;;3.38;1.20;;;21.50;57.60;;;;;;5092730;27;20071;-90
2021/04/01 13:56:04;;;;;;;2.13;1.00;;;21.50;57.40;;;;;;5113118;27;20087;-90
2021/04/01 14:09:32;;;;;;;;;;;21.50;56.50;;;;;;5078049;28;20052;-90
2021/04/01 14:12:00;;;;;;;2.95;0.75;;;21.50;56.80;;;;;;5114621;27;19912;-87
2021/04/01 14:14:28;;;;;;;1.98;1.05;;;21.50;56.60;;;;;;5082513;28;20033;-88
2021/04/01 14:16:56;;;;;;;1.55;0.90;;;21.50;56.60;;;;;;5074636;28;20104;-88
2021/04/01 14:19:24;;;;;;;1.63;0.75;;;21.50;56.40;;;;;;5085864;28;20056;-90
2021/04/01 14:21:54;;;;;;;2.45;1.02;;;21.50;56.30;;;;;;5095227;28;20539;-87
2021/04/01 14:24:25;;;;;;;2.03;1.15;;;21.50;56.10;;;;;;5079626;28;20035;-87
2021/04/01 14:27:12;;;;;;;1.77;0.85;;;21.50;55.90;;;;;;5059023;28;20062;-87